createdAt,value
2019-05-01T00:02:08.132Z,31.70
2019-05-01T00:05:12.136Z,31.13
2019-05-01T00:07:43.587Z,33.50
2019-05-01T00:10:14.629Z,33.67
2019-05-01T00:12:44.795Z,33.40
2019-05-01T00:15:15.077Z,34.00
2019-05-01T00:17:45.461Z,33.30
2019-05-01T00:20:15.795Z,34.17
2019-05-01T00:22:46.072Z,33.00
2019-05-01T00:25:16.255Z,31.90
2019-05-01T00:27:46.405Z,33.57
2019-05-01T00:30:29.359Z,34.70
2019-05-01T00:32:51.465Z,34.03
2019-05-01T00:35:21.783Z,34.00
2019-05-01T00:37:51.926Z,35.30
2019-05-01T00:40:22.179Z,34.87
2019-05-01T00:42:52.335Z,39.77
2019-05-01T00:45:22.512Z,40.27
2019-05-01T00:47:52.692Z,35.70
2019-05-01T00:50:22.879Z,36.23
2019-05-01T00:52:53.029Z,35.93
2019-05-01T00:55:40.820Z,37.50
2019-05-01T00:58:18.547Z,35.93
2019-05-01T01:00:57.836Z,34.47
2019-05-01T01:03:40.169Z,35.20
2019-05-01T01:06:10.343Z,35.27
2019-05-01T01:08:40.528Z,33.67
2019-05-01T01:11:10.708Z,35.20
2019-05-01T01:13:42.324Z,36.77
2019-05-01T01:16:12.560Z,35.30
2019-05-01T01:18:42.762Z,35.40
2019-05-01T01:21:12.972Z,34.37
2019-05-01T01:23:43.443Z,35.57
2019-05-01T01:26:13.607Z,33.83
2019-05-01T01:28:43.768Z,37.60
2019-05-01T01:31:13.962Z,37.23
2019-05-01T01:33:45.928Z,37.37
2019-05-01T01:36:16.492Z,36.43
2019-05-01T01:38:46.708Z,37.00
2019-05-01T01:41:17.093Z,38.30
2019-05-01T01:43:58.562Z,37.80
2019-05-01T01:46:30.462Z,37.07
2019-05-01T01:49:02.115Z,37.00
2019-05-01T01:51:32.549Z,35.70
2019-05-01T01:54:03.291Z,37.07
2019-05-01T01:56:33.467Z,35.13
2019-05-01T01:59:03.831Z,35.07
2019-05-01T02:01:42.372Z,37.00
2019-05-01T02:04:32.859Z,35.90
2019-05-01T02:07:03.091Z,35.83
2019-05-01T02:09:33.307Z,33.93
2019-05-01T02:12:03.516Z,35.93
2019-05-01T02:14:33.704Z,37.60
2019-05-01T02:17:03.882Z,35.87
2019-05-01T02:19:34.119Z,34.33
2019-05-01T02:22:04.349Z,37.07
2019-05-01T02:24:34.538Z,37.00
2019-05-01T02:27:09.667Z,38.57
2019-05-01T02:29:47.961Z,36.63
2019-05-01T02:32:20.235Z,37.67
2019-05-01T02:34:51.511Z,39.17
2019-05-01T02:37:22.988Z,38.13
2019-05-01T02:39:54.467Z,38.40
2019-05-01T02:42:27.805Z,40.13
2019-05-01T02:45:00.804Z,38.90
2019-05-01T02:47:35.428Z,37.40
2019-05-01T02:50:08.223Z,38.80
2019-05-01T02:52:41.917Z,38.70
2019-05-01T02:55:39.029Z,38.17
2019-05-01T02:58:11.916Z,37.70
2019-05-01T03:00:42.697Z,35.67
2019-05-01T03:03:12.934Z,38.40
2019-05-01T03:05:43.263Z,38.43
2019-05-01T03:08:13.619Z,37.93
2019-05-01T03:10:43.929Z,38.60
2019-05-01T03:13:14.276Z,40.87
2019-05-01T03:15:44.450Z,35.07
2019-05-01T03:18:29.911Z,37.67
2019-05-01T03:21:08.785Z,37.97
2019-05-01T03:24:01.157Z,39.70
2019-05-01T03:26:31.842Z,37.30
2019-05-01T03:29:02.108Z,35.53
2019-05-01T03:31:32.482Z,37.83
2019-05-01T03:34:02.837Z,39.43
2019-05-01T03:36:33.512Z,40.20
2019-05-01T03:39:05.618Z,39.73
2019-05-01T03:41:35.968Z,40.93
2019-05-01T03:44:06.484Z,39.17
2019-05-01T03:46:37.109Z,39.40
2019-05-01T03:49:07.412Z,38.60
2019-05-01T03:51:37.947Z,40.20
2019-05-01T03:54:08.099Z,38.23
2019-05-01T03:56:38.576Z,38.17
2019-05-01T03:59:09.344Z,38.20
2019-05-01T04:02:08.483Z,40.60
2019-05-01T04:04:38.867Z,39.67
2019-05-01T04:07:09.116Z,39.43
2019-05-01T04:09:39.505Z,37.20
2019-05-01T04:12:09.736Z,38.07
2019-05-01T04:14:40.517Z,39.50
2019-05-01T04:17:22.671Z,39.13
2019-05-01T04:19:52.834Z,37.70
2019-05-01T04:22:22.988Z,39.23
2019-05-01T04:24:53.439Z,38.17
2019-05-01T04:27:28.756Z,40.47
2019-05-01T04:30:19.053Z,40.90
2019-05-01T04:32:53.216Z,37.53
2019-05-01T04:35:27.016Z,40.50
2019-05-01T04:37:58.831Z,38.90
2019-05-01T04:40:30.011Z,43.77
2019-05-01T04:43:00.348Z,41.67
2019-05-01T04:45:31.014Z,43.43
2019-05-01T04:48:01.282Z,44.20
2019-05-01T04:50:31.857Z,43.07
2019-05-01T04:53:02.116Z,41.03
2019-05-01T04:55:32.787Z,41.07
2019-05-01T04:58:02.960Z,36.40
2019-05-01T05:00:33.683Z,38.00
2019-05-01T05:03:07.726Z,38.57
2019-05-01T05:05:38.516Z,38.10
2019-05-01T05:08:08.871Z,37.73
2019-05-01T05:10:39.362Z,40.60
2019-05-01T05:13:15.868Z,38.07
2019-05-01T05:16:05.111Z,39.77
2019-05-01T05:18:35.478Z,36.33
2019-05-01T05:21:05.952Z,38.43
2019-05-01T05:23:36.249Z,36.57
2019-05-01T05:26:06.619Z,36.97
2019-05-01T05:28:37.699Z,37.37
2019-05-01T05:31:08.850Z,36.60
2019-05-01T05:33:39.716Z,34.93
2019-05-01T05:36:11.492Z,38.63
2019-05-01T05:38:49.011Z,40.13
2019-05-01T05:41:21.256Z,38.03
2019-05-01T05:43:51.421Z,36.67
2019-05-01T05:46:21.696Z,38.97
2019-05-01T05:48:52.551Z,37.20
2019-05-01T05:51:50.187Z,38.93
2019-05-01T05:55:00.042Z,37.43
2019-05-01T05:57:59.587Z,35.50
2019-05-01T06:00:57.744Z,39.80
2019-05-01T06:03:59.046Z,37.80
2019-05-01T06:06:40.808Z,37.00
2019-05-01T06:09:13.886Z,36.50
2019-05-01T06:12:04.897Z,34.93
2019-05-01T06:14:45.195Z,34.70
2019-05-01T06:17:37.187Z,35.63
2019-05-01T06:20:25.799Z,36.27
2019-05-01T06:23:20.641Z,37.37
2019-05-01T06:25:54.176Z,34.17
2019-05-01T06:28:24.772Z,35.47
2019-05-01T06:30:58.139Z,34.33
2019-05-01T06:33:28.316Z,34.10
2019-05-01T06:35:58.477Z,34.10
2019-05-01T06:38:31.549Z,33.80
2019-05-01T06:41:01.481Z,30.77
2019-05-01T06:43:44.606Z,29.23
2019-05-01T06:46:29.140Z,29.10
2019-05-01T06:49:12.925Z,28.13
2019-05-01T06:51:53.128Z,30.97
2019-05-01T06:54:22.905Z,31.30
2019-05-01T06:56:53.794Z,32.13
2019-05-01T06:59:26.141Z,33.57
2019-05-01T07:02:00.217Z,33.07
2019-05-01T07:04:32.227Z,31.10
2019-05-01T07:07:06.746Z,32.33
2019-05-01T07:09:38.837Z,32.10
2019-05-01T07:12:14.074Z,31.23
2019-05-01T07:14:47.164Z,33.33
2019-05-01T07:17:16.607Z,31.13
2019-05-01T07:20:16.785Z,32.00
2019-05-01T07:22:48.036Z,32.70
2019-05-01T07:25:18.573Z,31.40
2019-05-01T07:27:48.855Z,31.00
2019-05-01T07:30:41.248Z,32.20
2019-05-01T07:33:12.110Z,30.53
2019-05-01T07:35:43.144Z,32.47
2019-05-01T07:38:13.584Z,31.67
2019-05-01T07:40:44.160Z,32.00
2019-05-01T07:43:25.635Z,31.67
2019-05-01T07:46:26.933Z,33.70
2019-05-01T07:48:57.642Z,32.97
2019-05-01T07:51:27.827Z,32.63
2019-05-01T07:54:03.432Z,32.87
2019-05-01T07:56:31.459Z,33.87
2019-05-01T07:59:01.827Z,30.33
2019-05-01T08:02:00.188Z,32.97
2019-05-01T08:04:37.526Z,34.67
2019-05-01T08:07:02.235Z,33.23
2019-05-01T08:09:33.504Z,31.13
2019-05-01T08:12:03.776Z,31.70
2019-05-01T08:14:33.936Z,31.30
2019-05-01T08:17:04.132Z,31.13
2019-05-01T08:19:51.684Z,30.83
2019-05-01T08:22:27.446Z,33.20
2019-05-01T08:24:58.629Z,30.80
2019-05-01T08:27:51.052Z,33.77
2019-05-01T08:30:48.094Z,33.40
2019-05-01T08:33:36.408Z,33.43
2019-05-01T08:36:11.578Z,33.70
2019-05-01T08:38:40.151Z,34.80
2019-05-01T08:41:10.358Z,31.47
2019-05-01T08:43:40.831Z,34.47
2019-05-01T08:46:33.047Z,34.40
2019-05-01T08:49:24.962Z,34.67
2019-05-01T08:51:55.123Z,33.90
2019-05-01T08:54:28.949Z,33.27
2019-05-01T08:57:01.119Z,33.20
2019-05-01T08:59:31.307Z,31.97
2019-05-01T09:02:09.462Z,32.60
2019-05-01T09:04:33.438Z,32.03
2019-05-01T09:07:03.651Z,33.93
2019-05-01T09:09:33.854Z,32.83
2019-05-01T09:12:06.926Z,31.57
2019-05-01T09:14:36.861Z,32.40
2019-05-01T09:17:07.389Z,34.73
2019-05-01T09:19:37.630Z,32.80
2019-05-01T09:22:07.960Z,34.50
2019-05-01T09:24:38.471Z,32.20
2019-05-01T09:27:33.693Z,32.60
2019-05-01T09:30:13.455Z,33.17
2019-05-01T09:32:45.957Z,35.43
2019-05-01T09:35:16.402Z,33.00
2019-05-01T09:37:48.091Z,33.23
2019-05-01T09:40:18.668Z,34.60
2019-05-01T09:42:49.028Z,32.90
2019-05-01T09:45:19.340Z,35.20
2019-05-01T09:47:49.524Z,32.67
2019-05-01T09:50:19.680Z,33.70
2019-05-01T09:53:00.996Z,34.93
2019-05-01T09:55:50.250Z,34.80
2019-05-01T09:58:20.612Z,31.90
2019-05-01T10:00:53.007Z,34.67
2019-05-01T10:03:24.119Z,32.20
2019-05-01T10:05:54.467Z,31.57
2019-05-01T10:08:24.659Z,31.33
2019-05-01T10:10:54.855Z,32.10
2019-05-01T10:13:25.063Z,33.33
2019-05-01T10:15:55.284Z,32.23
2019-05-01T10:18:25.590Z,31.83
2019-05-01T10:20:55.807Z,32.43
2019-05-01T10:23:26.000Z,33.20
2019-05-01T10:25:57.924Z,35.33
2019-05-01T10:28:37.317Z,36.17
2019-05-01T10:31:16.355Z,33.47
2019-05-01T10:33:47.646Z,34.10
2019-05-01T10:36:43.779Z,33.23
2019-05-01T10:39:16.071Z,33.17
2019-05-01T10:41:47.806Z,32.37
2019-05-01T10:44:18.247Z,34.33
2019-05-01T10:46:48.590Z,33.00
2019-05-01T10:49:18.824Z,34.47
2019-05-01T10:51:49.021Z,35.33
2019-05-01T10:54:19.226Z,35.73
2019-05-01T10:56:49.520Z,34.43
2019-05-01T10:59:19.696Z,34.43
2019-05-01T11:01:53.644Z,33.77
2019-05-01T11:04:23.889Z,35.80
2019-05-01T11:06:55.143Z,32.80
2019-05-01T11:09:25.324Z,33.93
2019-05-01T11:11:55.570Z,34.17
2019-05-01T11:14:25.751Z,34.10
2019-05-01T11:16:56.092Z,33.93
2019-05-01T11:19:26.443Z,32.90
2019-05-01T11:21:57.767Z,32.50
2019-05-01T11:24:28.971Z,33.27
2019-05-01T11:26:59.187Z,33.83
2019-05-01T11:29:29.457Z,34.27
2019-05-01T11:32:17.509Z,35.23
2019-05-01T11:34:57.470Z,35.60
2019-05-01T11:37:46.662Z,35.43
2019-05-01T11:40:38.621Z,36.50
2019-05-01T11:43:08.881Z,36.40
2019-05-01T11:45:39.093Z,37.07
2019-05-01T11:48:09.276Z,37.00
2019-05-01T11:50:39.493Z,35.57
2019-05-01T11:53:09.898Z,38.67
2019-05-01T11:55:40.594Z,36.80
2019-05-01T11:58:10.769Z,36.47
2019-05-01T12:00:41.179Z,36.13
2019-05-01T12:03:11.376Z,36.40
2019-05-01T12:05:41.535Z,37.37
2019-05-01T12:08:11.728Z,39.20
2019-05-01T12:10:41.900Z,36.07
2019-05-01T12:13:12.163Z,38.57
2019-05-01T12:15:43.938Z,35.33
2019-05-01T12:18:14.146Z,36.07
2019-05-01T12:20:44.348Z,39.20
2019-05-01T12:23:25.857Z,37.10
2019-05-01T12:25:56.068Z,36.97
2019-05-01T12:28:26.272Z,37.50
2019-05-01T12:30:56.456Z,38.20
2019-05-01T12:33:26.680Z,39.00
2019-05-01T12:35:58.509Z,37.83
2019-05-01T12:38:28.796Z,38.77
2019-05-01T12:41:16.549Z,37.33
2019-05-01T12:43:46.785Z,37.43
2019-05-01T12:46:37.927Z,37.50
2019-05-01T12:49:08.119Z,36.40
2019-05-01T12:51:39.341Z,40.80
2019-05-01T12:54:15.450Z,36.37
2019-05-01T12:56:51.240Z,35.90
2019-05-01T12:59:21.487Z,38.60
2019-05-01T13:01:51.692Z,37.63
2019-05-01T13:04:21.914Z,36.73
2019-05-01T13:06:55.032Z,38.00
2019-05-01T13:09:26.828Z,36.27
2019-05-01T13:11:57.031Z,39.10
2019-05-01T13:14:27.319Z,38.43
2019-05-01T13:16:57.514Z,37.70
2019-05-01T13:19:27.786Z,37.73
2019-05-01T13:21:57.997Z,38.37
2019-05-01T13:24:28.178Z,35.60
2019-05-01T13:27:13.940Z,39.70
2019-05-01T13:29:49.312Z,38.13
2019-05-01T13:32:41.754Z,36.10
2019-05-01T13:35:12.128Z,37.70
2019-05-01T13:37:42.519Z,38.57
2019-05-01T13:40:13.373Z,38.53
2019-05-01T13:42:43.799Z,39.53
2019-05-01T13:45:15.380Z,39.63
2019-05-01T13:47:45.851Z,40.10
2019-05-01T13:50:16.160Z,39.93
2019-05-01T13:52:46.570Z,38.30
2019-05-01T13:55:16.965Z,39.77
2019-05-01T13:57:47.496Z,37.43
2019-05-01T14:00:19.779Z,39.30
2019-05-01T14:02:50.163Z,40.50
2019-05-01T14:05:20.577Z,39.43
2019-05-01T14:07:50.808Z,41.70
2019-05-01T14:10:21.269Z,40.63
2019-05-01T14:12:51.578Z,39.77
2019-05-01T14:15:21.779Z,41.10
2019-05-01T14:17:52.107Z,41.70
2019-05-01T14:20:56.463Z,42.10
2019-05-01T14:23:33.374Z,41.03
2019-05-01T14:26:03.700Z,40.30
2019-05-01T14:28:35.107Z,41.17
2019-05-01T14:31:06.033Z,41.70
2019-05-01T14:33:36.341Z,41.47
2019-05-01T14:36:06.522Z,42.23
2019-05-01T14:38:36.740Z,41.47
2019-05-01T14:41:07.006Z,41.07
2019-05-01T14:43:37.195Z,42.63
2019-05-01T14:46:07.396Z,42.93
2019-05-01T14:48:37.598Z,42.47
2019-05-01T14:51:07.808Z,43.67
2019-05-01T14:53:38.019Z,42.93
2019-05-01T14:56:08.209Z,45.53
2019-05-01T14:58:38.413Z,44.57
2019-05-01T15:01:08.603Z,45.13
2019-05-01T15:03:38.795Z,45.70
2019-05-01T15:06:08.987Z,44.63
2019-05-01T15:08:39.200Z,43.80
2019-05-01T15:11:09.383Z,46.50
2019-05-01T15:13:52.073Z,45.07
2019-05-01T15:16:26.830Z,44.17
2019-05-01T15:19:17.514Z,44.40
2019-05-01T15:21:47.691Z,44.20
2019-05-01T15:24:17.872Z,45.60
2019-05-01T15:26:48.063Z,44.23
2019-05-01T15:29:18.288Z,44.80
2019-05-01T15:31:48.468Z,46.27
2019-05-01T15:34:18.891Z,46.17
2019-05-01T15:36:49.079Z,43.23
2019-05-01T15:39:30.339Z,45.43
2019-05-01T15:42:18.341Z,45.80
2019-05-01T15:44:48.520Z,44.33
2019-05-01T15:47:18.739Z,42.70
2019-05-01T15:49:48.960Z,44.70
2019-05-01T15:52:19.177Z,42.70
2019-05-01T15:54:49.327Z,45.23
2019-05-01T15:57:19.519Z,44.70
2019-05-01T15:59:49.743Z,45.40
2019-05-01T16:02:20.024Z,46.67
2019-05-01T16:04:50.288Z,46.80
2019-05-01T16:07:20.607Z,44.50
2019-05-01T16:09:50.890Z,45.67
2019-05-01T16:12:35.349Z,44.90
2019-05-01T16:15:10.416Z,44.60
2019-05-01T16:17:40.702Z,42.10
2019-05-01T16:20:11.298Z,44.67
2019-05-01T16:22:41.455Z,44.60
2019-05-01T16:25:11.971Z,43.30
2019-05-01T16:27:42.505Z,45.33
2019-05-01T16:30:15.559Z,45.40
2019-05-01T16:32:45.878Z,45.97
2019-05-01T16:35:16.028Z,43.70
2019-05-01T16:37:46.307Z,43.57
2019-05-01T16:40:26.830Z,46.13
2019-05-01T16:42:57.001Z,45.07
2019-05-01T16:45:28.144Z,46.90
2019-05-01T16:47:58.458Z,46.20
2019-05-01T16:50:28.649Z,48.37
2019-05-01T16:52:58.876Z,48.67
2019-05-01T16:55:29.259Z,45.67
2019-05-01T16:57:59.411Z,45.40
2019-05-01T17:01:10.655Z,44.53
2019-05-01T17:03:58.464Z,44.23
2019-05-01T17:06:46.320Z,43.57
2019-05-01T17:09:34.815Z,46.57
2019-05-01T17:12:05.930Z,45.53
2019-05-01T17:14:36.336Z,44.37
2019-05-01T17:17:08.272Z,44.30
2019-05-01T17:19:38.466Z,44.63
2019-05-01T17:22:09.377Z,43.83
2019-05-01T17:24:41.363Z,42.43
2019-05-01T17:27:12.285Z,45.10
2019-05-01T17:29:43.335Z,44.47
2019-05-01T17:32:15.493Z,45.67
2019-05-01T17:34:46.005Z,44.60
2019-05-01T17:37:16.633Z,43.30
2019-05-01T17:39:48.527Z,44.00
2019-05-01T17:42:19.668Z,45.40
2019-05-01T17:44:50.107Z,52.43
2019-05-01T17:47:22.505Z,46.50
2019-05-01T17:49:52.259Z,47.77
2019-05-01T17:52:23.091Z,42.57
2019-05-01T17:54:54.049Z,45.43
2019-05-01T17:57:25.098Z,44.70
2019-05-01T17:59:58.063Z,44.30
2019-05-01T18:02:53.195Z,43.07
2019-05-01T18:05:45.365Z,40.07
2019-05-01T18:08:17.465Z,42.10
2019-05-01T18:10:48.639Z,44.37
2019-05-01T18:13:19.592Z,45.57
2019-05-01T18:15:50.178Z,46.57
2019-05-01T18:18:20.375Z,45.90
2019-05-01T18:20:52.255Z,46.33
2019-05-01T18:23:47.608Z,45.80
2019-05-01T18:26:54.179Z,43.83
2019-05-01T18:29:35.535Z,45.57
2019-05-01T18:32:08.249Z,43.50
2019-05-01T18:34:39.497Z,43.10
2019-05-01T18:37:17.632Z,43.83
2019-05-01T18:39:48.379Z,44.80
2019-05-01T18:42:18.794Z,42.53
2019-05-01T18:44:50.976Z,44.60
2019-05-01T18:47:22.242Z,44.07
2019-05-01T18:49:52.926Z,42.63
2019-05-01T18:52:23.872Z,46.63
2019-05-01T18:54:54.472Z,46.17
2019-05-01T18:57:24.690Z,44.70
2019-05-01T18:59:54.887Z,48.13
2019-05-01T19:02:26.224Z,46.10
2019-05-01T19:04:57.235Z,47.60
2019-05-01T19:07:27.700Z,44.80
2019-05-01T19:09:58.421Z,45.20
2019-05-01T19:12:31.235Z,43.70
2019-05-01T19:15:05.572Z,43.70
2019-05-01T19:17:35.561Z,43.37
2019-05-01T19:20:07.061Z,44.77
2019-05-01T19:22:38.152Z,45.07
2019-05-01T19:25:10.923Z,46.10
2019-05-01T19:27:41.621Z,45.43
2019-05-01T19:30:14.829Z,45.80
2019-05-01T19:32:44.325Z,47.17
2019-05-01T19:35:14.850Z,47.97
2019-05-01T19:37:45.091Z,46.47
2019-05-01T19:40:15.851Z,47.00
2019-05-01T19:42:46.170Z,47.90
2019-05-01T19:45:18.318Z,46.70
2019-05-01T19:47:48.910Z,51.40
2019-05-01T19:50:19.223Z,50.10
2019-05-01T19:52:49.482Z,51.40
2019-05-01T19:55:20.982Z,49.80
2019-05-01T19:57:51.289Z,49.23
2019-05-01T20:00:44.764Z,49.73
2019-05-01T20:03:16.085Z,51.97
2019-05-01T20:05:46.350Z,50.87
2019-05-01T20:08:18.176Z,51.73
2019-05-01T20:10:48.477Z,53.97
2019-05-01T20:13:18.952Z,49.93
2019-05-01T20:15:49.225Z,51.57
2019-05-01T20:18:19.611Z,50.20
2019-05-01T20:20:49.947Z,50.77
2019-05-01T20:23:20.160Z,51.90
2019-05-01T20:25:55.380Z,54.00
2019-05-01T20:28:22.526Z,52.87
2019-05-01T20:30:52.820Z,54.53
2019-05-01T20:33:23.117Z,51.70
2019-05-01T20:35:53.320Z,54.83
2019-05-01T20:38:23.527Z,53.47
2019-05-01T20:40:53.847Z,53.50
2019-05-01T20:43:24.156Z,53.30
2019-05-01T20:45:54.346Z,51.47
2019-05-01T20:48:26.221Z,53.97
2019-05-01T20:50:56.545Z,55.43
2019-05-01T20:53:26.768Z,54.83
2019-05-01T20:56:03.398Z,53.97
2019-05-01T20:58:36.012Z,53.67
2019-05-01T21:01:06.190Z,53.37
2019-05-01T21:03:38.017Z,55.33
2019-05-01T21:06:17.371Z,52.87
2019-05-01T21:08:57.717Z,53.53
2019-05-01T21:11:34.092Z,51.63
2019-05-01T21:14:19.729Z,54.03
2019-05-01T21:16:39.650Z,51.17
2019-05-01T21:19:09.842Z,52.97
2019-05-01T21:21:40.032Z,52.70
2019-05-01T21:24:10.204Z,52.97
2019-05-01T21:26:44.191Z,52.47
2019-05-01T21:29:14.415Z,51.60
2019-05-01T21:31:44.689Z,53.17
2019-05-01T21:34:14.861Z,49.27
2019-05-01T21:36:47.616Z,53.60
2019-05-01T21:39:17.994Z,50.10
2019-05-01T21:41:48.849Z,51.97
2019-05-01T21:44:19.015Z,48.50
2019-05-01T21:46:50.324Z,49.67
2019-05-01T21:49:20.525Z,50.77
2019-05-01T21:51:53.025Z,50.13
2019-05-01T21:54:23.256Z,53.47
2019-05-01T21:56:53.427Z,55.80
2019-05-01T21:59:25.492Z,49.40
2019-05-01T22:01:55.647Z,51.33
2019-05-01T22:04:31.904Z,50.67
2019-05-01T22:07:00.715Z,52.10
2019-05-01T22:09:32.379Z,51.87
2019-05-01T22:12:02.745Z,52.07
2019-05-01T22:14:41.380Z,53.27
2019-05-01T22:17:39.739Z,52.00
2019-05-01T22:20:11.870Z,52.77
2019-05-01T22:22:47.590Z,50.63
2019-05-01T22:25:21.550Z,50.33
2019-05-01T22:27:57.131Z,51.80
2019-05-01T22:30:46.426Z,51.47
2019-05-01T22:33:17.403Z,50.80
2019-05-01T22:35:50.191Z,49.63
2019-05-01T22:38:20.464Z,48.87
2019-05-01T22:41:06.482Z,49.10
2019-05-01T22:43:33.378Z,49.60
2019-05-01T22:46:04.775Z,49.77
2019-05-01T22:48:34.923Z,51.97
2019-05-01T22:51:18.368Z,50.43
2019-05-01T22:53:54.419Z,47.53
2019-05-01T22:56:25.839Z,49.40
2019-05-01T22:58:56.005Z,48.60
2019-05-01T23:01:27.297Z,47.60
2019-05-01T23:04:07.569Z,48.50
2019-05-01T23:06:41.768Z,47.90
2019-05-01T23:09:11.983Z,47.67
2019-05-01T23:11:44.767Z,48.67
2019-05-01T23:14:15.120Z,47.50
2019-05-01T23:16:52.311Z,44.90
2019-05-01T23:19:22.904Z,46.07
2019-05-01T23:21:54.423Z,44.97
2019-05-01T23:24:24.595Z,44.30
2019-05-01T23:26:54.762Z,44.20
2019-05-01T23:29:24.915Z,45.83
2019-05-01T23:31:55.487Z,44.20
2019-05-01T23:34:26.140Z,43.03
2019-05-01T23:36:57.611Z,44.30
2019-05-01T23:39:27.909Z,44.40
2019-05-01T23:41:58.059Z,40.77
2019-05-01T23:44:28.245Z,42.90
2019-05-01T23:46:58.407Z,41.70
2019-05-01T23:49:28.579Z,42.77
2019-05-01T23:52:03.213Z,44.80
2019-05-01T23:54:30.632Z,41.93
2019-05-01T23:57:01.756Z,43.97
2019-05-01T23:59:31.921Z,44.40
